sensor_id;sensor_type;location;lat;lon;timestamp;pressure;altitude;pressure_sealevel;temperature;humidity
59106;BME280;44891;50.204;8.132;2024-02-23T00:01:32;95826.56;;;6.40;79.31
59106;BME280;44891;50.204;8.132;2024-02-23T00:05:34;95856.84;;;6.36;80.24
59106;BME280;44891;50.204;8.132;2024-02-23T00:09:36;95887.50;;;5.94;80.55
59106;BME280;44891;50.204;8.132;2024-02-23T00:13:38;95892.69;;;5.84;81.31
59106;BME280;44891;50.204;8.132;2024-02-23T00:17:41;95901.38;;;5.49;83.47
59106;BME280;44891;50.204;8.132;2024-02-23T00:21:44;95883.66;;;5.21;85.76
59106;BME280;44891;50.204;8.132;2024-02-23T00:25:50;95883.16;;;5.03;85.85
59106;BME280;44891;50.204;8.132;2024-02-23T00:29:52;95895.91;;;5.10;86.07
59106;BME280;44891;50.204;8.132;2024-02-23T00:33:55;95930.22;;;4.97;87.63
59106;BME280;44891;50.204;8.132;2024-02-23T00:37:57;95943.75;;;5.04;87.60
59106;BME280;44891;50.204;8.132;2024-02-23T00:41:58;95946.88;;;4.96;90.24
59106;BME280;44891;50.204;8.132;2024-02-23T00:46:00;95945.84;;;4.97;87.92
59106;BME280;44891;50.204;8.132;2024-02-23T00:50:04;95941.13;;;4.94;87.25
59106;BME280;44891;50.204;8.132;2024-02-23T00:54:06;95964.50;;;4.73;88.14
59106;BME280;44891;50.204;8.132;2024-02-23T00:58:08;95972.03;;;4.80;86.65
59106;BME280;44891;50.204;8.132;2024-02-23T01:02:10;95974.38;;;4.81;85.59
59106;BME280;44891;50.204;8.132;2024-02-23T01:06:13;95961.16;;;4.83;85.36
59106;BME280;44891;50.204;8.132;2024-02-23T01:10:15;95979.81;;;4.64;85.81
59106;BME280;44891;50.204;8.132;2024-02-23T01:14:17;96009.88;;;4.45;87.13
59106;BME280;44891;50.204;8.132;2024-02-23T01:18:19;96000.31;;;4.61;86.23
59106;BME280;44891;50.204;8.132;2024-02-23T01:22:22;96002.16;;;4.66;85.06
59106;BME280;44891;50.204;8.132;2024-02-23T01:26:24;95999.78;;;4.59;84.99
59106;BME280;44891;50.204;8.132;2024-02-23T01:30:26;96001.59;;;4.53;84.81
59106;BME280;44891;50.204;8.132;2024-02-23T01:34:27;95997.75;;;4.71;83.02
59106;BME280;44891;50.204;8.132;2024-02-23T01:38:31;96012.25;;;4.52;85.04
59106;BME280;44891;50.204;8.132;2024-02-23T01:42:33;96022.03;;;4.34;85.13
59106;BME280;44891;50.204;8.132;2024-02-23T01:46:35;96042.56;;;4.41;84.66
59106;BME280;44891;50.204;8.132;2024-02-23T01:50:37;96029.78;;;4.24;85.17
59106;BME280;44891;50.204;8.132;2024-02-23T01:54:41;96037.16;;;4.43;83.54
59106;BME280;44891;50.204;8.132;2024-02-23T01:58:43;96041.84;;;4.46;83.47
59106;BME280;44891;50.204;8.132;2024-02-23T02:02:45;96050.00;;;4.17;85.66
59106;BME280;44891;50.204;8.132;2024-02-23T02:06:47;96033.63;;;4.22;84.65
59106;BME280;44891;50.204;8.132;2024-02-23T02:10:51;96050.81;;;4.23;84.23
59106;BME280;44891;50.204;8.132;2024-02-23T02:14:52;96053.03;;;4.09;84.51
59106;BME280;44891;50.204;8.132;2024-02-23T02:18:54;96057.28;;;4.20;82.74
59106;BME280;44891;50.204;8.132;2024-02-23T02:22:56;96063.72;;;4.13;82.40
59106;BME280;44891;50.204;8.132;2024-02-23T02:26:59;96063.19;;;4.11;81.78
59106;BME280;44891;50.204;8.132;2024-02-23T02:31:01;96070.78;;;4.17;81.02
59106;BME280;44891;50.204;8.132;2024-02-23T02:35:04;96073.78;;;4.04;81.89
59106;BME280;44891;50.204;8.132;2024-02-23T02:39:06;96081.00;;;3.97;82.32
59106;BME280;44891;50.204;8.132;2024-02-23T02:43:10;96076.97;;;4.11;81.20
59106;BME280;44891;50.204;8.132;2024-02-23T02:47:12;96085.16;;;4.30;80.12
59106;BME280;44891;50.204;8.132;2024-02-23T02:51:14;96087.44;;;4.26;81.18
59106;BME280;44891;50.204;8.132;2024-02-23T02:55:16;96092.63;;;4.26;81.91
59106;BME280;44891;50.204;8.132;2024-02-23T02:59:19;96088.97;;;4.22;83.00
59106;BME280;44891;50.204;8.132;2024-02-23T03:03:21;96089.00;;;4.27;82.73
59106;BME280;44891;50.204;8.132;2024-02-23T03:07:23;96099.59;;;4.21;81.57
59106;BME280;44891;50.204;8.132;2024-02-23T03:11:24;96097.16;;;4.04;82.61
59106;BME280;44891;50.204;8.132;2024-02-23T03:15:28;96100.03;;;4.07;82.22
59106;BME280;44891;50.204;8.132;2024-02-23T03:19:29;96087.34;;;4.11;81.69
59106;BME280;44891;50.204;8.132;2024-02-23T03:23:33;96091.00;;;4.15;81.71
59106;BME280;44891;50.204;8.132;2024-02-23T03:27:35;96095.25;;;3.94;82.35
59106;BME280;44891;50.204;8.132;2024-02-23T03:31:39;96099.00;;;4.08;81.01
59106;BME280;44891;50.204;8.132;2024-02-23T03:35:40;96100.75;;;3.98;81.47
59106;BME280;44891;50.204;8.132;2024-02-23T03:39:43;96101.91;;;4.12;80.41
59106;BME280;44891;50.204;8.132;2024-02-23T03:43:44;96106.56;;;4.15;80.11
59106;BME280;44891;50.204;8.132;2024-02-23T03:47:48;96118.38;;;3.96;81.30
59106;BME280;44891;50.204;8.132;2024-02-23T03:51:49;96122.63;;;4.07;80.67
59106;BME280;44891;50.204;8.132;2024-02-23T03:55:51;96120.53;;;4.04;81.17
59106;BME280;44891;50.204;8.132;2024-02-23T03:59:54;96133.47;;;3.99;81.59
59106;BME280;44891;50.204;8.132;2024-02-23T04:03:57;96139.28;;;4.11;81.53
59106;BME280;44891;50.204;8.132;2024-02-23T04:07:59;96138.38;;;4.27;80.38
59106;BME280;44891;50.204;8.132;2024-02-23T04:12:01;96145.59;;;4.20;81.26
59106;BME280;44891;50.204;8.132;2024-02-23T04:16:03;96150.09;;;3.98;83.34
59106;BME280;44891;50.204;8.132;2024-02-23T04:20:07;96153.94;;;3.95;84.60
59106;BME280;44891;50.204;8.132;2024-02-23T04:24:10;96146.78;;;4.07;84.62
59106;BME280;44891;50.204;8.132;2024-02-23T04:28:11;96147.19;;;3.94;85.19
59106;BME280;44891;50.204;8.132;2024-02-23T04:32:13;96158.03;;;3.86;85.52
59106;BME280;44891;50.204;8.132;2024-02-23T04:36:18;96161.25;;;3.98;84.67
59106;BME280;44891;50.204;8.132;2024-02-23T04:40:20;96155.06;;;4.04;84.64
59106;BME280;44891;50.204;8.132;2024-02-23T04:44:22;96155.34;;;4.08;83.47
59106;BME280;44891;50.204;8.132;2024-02-23T04:48:24;96151.00;;;4.14;82.88
59106;BME280;44891;50.204;8.132;2024-02-23T04:52:27;96150.34;;;3.96;84.17
59106;BME280;44891;50.204;8.132;2024-02-23T04:56:30;96141.31;;;4.04;82.86
59106;BME280;44891;50.204;8.132;2024-02-23T05:00:31;96152.63;;;3.93;84.23
59106;BME280;44891;50.204;8.132;2024-02-23T05:04:34;96144.63;;;3.99;83.28
59106;BME280;44891;50.204;8.132;2024-02-23T05:08:37;96142.59;;;3.74;83.89
59106;BME280;44891;50.204;8.132;2024-02-23T05:12:39;96143.16;;;3.76;83.55
59106;BME280;44891;50.204;8.132;2024-02-23T05:16:41;96152.31;;;3.84;83.81
59106;BME280;44891;50.204;8.132;2024-02-23T05:20:43;96153.16;;;3.95;82.16
59106;BME280;44891;50.204;8.132;2024-02-23T05:24:46;96170.34;;;4.01;82.35
59106;BME280;44891;50.204;8.132;2024-02-23T05:28:48;96170.03;;;3.92;81.46
59106;BME280;44891;50.204;8.132;2024-02-23T05:32:50;96178.78;;;3.86;82.22
59106;BME280;44891;50.204;8.132;2024-02-23T05:36:52;96188.53;;;4.01;81.78
59106;BME280;44891;50.204;8.132;2024-02-23T05:40:55;96183.25;;;3.91;81.49
59106;BME280;44891;50.204;8.132;2024-02-23T05:44:57;96181.31;;;4.08;78.98
59106;BME280;44891;50.204;8.132;2024-02-23T05:48:58;96172.50;;;4.09;78.52
59106;BME280;44891;50.204;8.132;2024-02-23T05:53:00;96185.16;;;4.00;78.89
59106;BME280;44891;50.204;8.132;2024-02-23T05:57:05;96180.00;;;4.05;77.48
59106;BME280;44891;50.204;8.132;2024-02-23T06:01:07;96183.59;;;3.99;78.49
59106;BME280;44891;50.204;8.132;2024-02-23T06:05:08;96175.81;;;3.99;79.01
59106;BME280;44891;50.204;8.132;2024-02-23T06:09:10;96172.91;;;3.96;78.28
59106;BME280;44891;50.204;8.132;2024-02-23T06:13:14;96165.16;;;4.01;78.16
59106;BME280;44891;50.204;8.132;2024-02-23T06:17:16;96178.19;;;4.06;77.52
59106;BME280;44891;50.204;8.132;2024-02-23T06:21:18;96177.41;;;4.05;78.19
59106;BME280;44891;50.204;8.132;2024-02-23T06:25:20;96178.97;;;4.06;78.58
59106;BME280;44891;50.204;8.132;2024-02-23T06:29:23;96196.47;;;3.89;80.18
59106;BME280;44891;50.204;8.132;2024-02-23T06:33:26;96197.28;;;3.90;81.15
59106;BME280;44891;50.204;8.132;2024-02-23T06:37:27;96194.22;;;3.98;80.97
59106;BME280;44891;50.204;8.132;2024-02-23T06:41:29;96207.28;;;4.03;81.38
59106;BME280;44891;50.204;8.132;2024-02-23T06:45:33;96201.81;;;4.04;81.89
59106;BME280;44891;50.204;8.132;2024-02-23T06:49:35;96209.06;;;4.02;82.17
59106;BME280;44891;50.204;8.132;2024-02-23T06:53:36;96210.78;;;3.92;82.70
59106;BME280;44891;50.204;8.132;2024-02-23T06:57:38;96201.66;;;3.89;83.04
59106;BME280;44891;50.204;8.132;2024-02-23T07:01:48;96190.22;;;3.85;83.30
59106;BME280;44891;50.204;8.132;2024-02-23T07:05:50;96196.25;;;3.91;84.54
59106;BME280;44891;50.204;8.132;2024-02-23T07:09:52;96200.41;;;3.92;84.15
59106;BME280;44891;50.204;8.132;2024-02-23T07:13:56;96203.59;;;3.99;83.53
59106;BME280;44891;50.204;8.132;2024-02-23T07:17:59;96211.84;;;3.96;84.62
59106;BME280;44891;50.204;8.132;2024-02-23T07:22:01;96220.38;;;3.91;86.38
59106;BME280;44891;50.204;8.132;2024-02-23T07:26:03;96229.69;;;4.14;85.95
59106;BME280;44891;50.204;8.132;2024-02-23T07:30:06;96227.34;;;4.13;86.97
59106;BME280;44891;50.204;8.132;2024-02-23T07:34:09;96230.06;;;4.28;87.26
59106;BME280;44891;50.204;8.132;2024-02-23T07:38:11;96235.38;;;4.38;89.43
59106;BME280;44891;50.204;8.132;2024-02-23T07:42:13;96245.44;;;4.61;89.73
59106;BME280;44891;50.204;8.132;2024-02-23T07:46:19;96244.69;;;4.34;86.26
59106;BME280;44891;50.204;8.132;2024-02-23T07:50:24;96252.47;;;4.34;86.04
59106;BME280;44891;50.204;8.132;2024-02-23T07:54:26;96245.47;;;4.34;86.23
59106;BME280;44891;50.204;8.132;2024-02-23T07:58:28;96257.94;;;4.64;85.61
59106;BME280;44891;50.204;8.132;2024-02-23T08:02:30;96260.66;;;4.48;86.70
59106;BME280;44891;50.204;8.132;2024-02-23T08:06:33;96267.88;;;4.73;86.16
59106;BME280;44891;50.204;8.132;2024-02-23T08:10:35;96269.94;;;4.71;86.05
59106;BME280;44891;50.204;8.132;2024-02-23T08:14:36;96268.78;;;4.88;85.67
59106;BME280;44891;50.204;8.132;2024-02-23T08:18:38;96281.13;;;4.71;85.59
59106;BME280;44891;50.204;8.132;2024-02-23T08:22:42;96237.34;;;4.58;84.72
59106;BME280;44891;50.204;8.132;2024-02-23T08:26:43;96287.69;;;4.79;84.75
59106;BME280;44891;50.204;8.132;2024-02-23T08:30:45;96286.25;;;4.93;84.85
59106;BME280;44891;50.204;8.132;2024-02-23T08:34:47;96290.59;;;4.82;85.23
59106;BME280;44891;50.204;8.132;2024-02-23T08:38:50;96293.81;;;5.00;85.28
59106;BME280;44891;50.204;8.132;2024-02-23T08:42:52;96285.66;;;4.86;85.57
59106;BME280;44891;50.204;8.132;2024-02-23T08:46:54;96297.09;;;4.85;86.26
59106;BME280;44891;50.204;8.132;2024-02-23T08:50:56;96304.75;;;4.97;85.77
59106;BME280;44891;50.204;8.132;2024-02-23T08:54:59;96300.28;;;4.92;86.07
59106;BME280;44891;50.204;8.132;2024-02-23T08:59:01;96314.38;;;4.96;86.61
59106;BME280;44891;50.204;8.132;2024-02-23T09:03:04;96305.63;;;5.12;85.87
59106;BME280;44891;50.204;8.132;2024-02-23T09:07:06;96300.47;;;5.17;85.76
59106;BME280;44891;50.204;8.132;2024-02-23T09:11:09;96295.97;;;5.08;85.37
59106;BME280;44891;50.204;8.132;2024-02-23T09:15:12;96299.72;;;5.27;86.00
59106;BME280;44891;50.204;8.132;2024-02-23T09:19:13;96301.28;;;5.23;85.74
59106;BME280;44891;50.204;8.132;2024-02-23T09:23:15;96302.81;;;5.19;85.39
59106;BME280;44891;50.204;8.132;2024-02-23T09:27:21;96307.75;;;5.15;86.21
59106;BME280;44891;50.204;8.132;2024-02-23T09:31:23;96310.72;;;5.82;84.37
59106;BME280;44891;50.204;8.132;2024-02-23T09:35:25;96309.94;;;5.86;84.46
59106;BME280;44891;50.204;8.132;2024-02-23T09:39:27;96302.16;;;5.91;83.93
59106;BME280;44891;50.204;8.132;2024-02-23T09:43:32;96307.78;;;5.73;82.59
59106;BME280;44891;50.204;8.132;2024-02-23T09:47:34;96295.09;;;5.82;83.71
59106;BME280;44891;50.204;8.132;2024-02-23T09:51:36;96307.44;;;6.02;82.79
59106;BME280;44891;50.204;8.132;2024-02-23T09:55:40;96290.31;;;6.31;81.51
59106;BME280;44891;50.204;8.132;2024-02-23T09:59:44;96280.63;;;7.44;76.23
59106;BME280;44891;50.204;8.132;2024-02-23T10:03:45;96289.56;;;8.07;74.55
59106;BME280;44891;50.204;8.132;2024-02-23T10:07:47;96299.72;;;8.63;70.36
59106;BME280;44891;50.204;8.132;2024-02-23T10:11:51;96291.28;;;10.06;66.56
59106;BME280;44891;50.204;8.132;2024-02-23T10:15:54;96285.88;;;11.11;62.29
59106;BME280;44891;50.204;8.132;2024-02-23T10:19:57;96275.28;;;14.35;56.43
59106;BME280;44891;50.204;8.132;2024-02-23T10:23:59;96281.38;;;14.70;52.69
59106;BME280;44891;50.204;8.132;2024-02-23T10:28:01;96279.13;;;12.56;54.49
59106;BME280;44891;50.204;8.132;2024-02-23T10:32:04;96295.41;;;13.96;52.80
59106;BME280;44891;50.204;8.132;2024-02-23T10:36:07;96302.13;;;9.76;64.41
59106;BME280;44891;50.204;8.132;2024-02-23T10:40:11;96288.53;;;14.52;52.46
59106;BME280;44891;50.204;8.132;2024-02-23T10:44:15;96282.78;;;8.90;65.29
59106;BME280;44891;50.204;8.132;2024-02-23T10:48:19;96287.72;;;8.08;69.99
59106;BME280;44891;50.204;8.132;2024-02-23T10:52:21;96285.06;;;12.62;58.46
59106;BME280;44891;50.204;8.132;2024-02-23T10:56:26;96285.41;;;14.50;51.91
59106;BME280;44891;50.204;8.132;2024-02-23T11:00:29;96292.66;;;15.22;48.49
59106;BME280;44891;50.204;8.132;2024-02-23T11:04:32;96299.41;;;9.86;62.46
59106;BME280;44891;50.204;8.132;2024-02-23T11:08:35;96301.13;;;10.15;59.92
59106;BME280;44891;50.204;8.132;2024-02-23T11:12:38;96294.97;;;8.26;64.66
59106;BME280;44891;50.204;8.132;2024-02-23T11:16:40;96290.31;;;9.54;61.71
59106;BME280;44891;50.204;8.132;2024-02-23T11:20:44;96293.47;;;9.99;59.79
59106;BME280;44891;50.204;8.132;2024-02-23T11:24:59;96282.88;;;10.66;57.59
59106;BME280;44891;50.204;8.132;2024-02-23T11:29:09;96278.56;;;8.60;67.39
59106;BME280;44891;50.204;8.132;2024-02-23T11:33:11;96277.03;;;8.88;66.49
59106;BME280;44891;50.204;8.132;2024-02-23T11:37:14;96289.53;;;8.12;67.10
59106;BME280;44891;50.204;8.132;2024-02-23T11:41:21;96290.34;;;8.03;69.49
59106;BME280;44891;50.204;8.132;2024-02-23T11:45:23;96289.88;;;7.90;68.88
59106;BME280;44891;50.204;8.132;2024-02-23T11:49:27;96280.69;;;8.03;68.69
59106;BME280;44891;50.204;8.132;2024-02-23T11:53:30;96263.78;;;10.79;55.69
59106;BME280;44891;50.204;8.132;2024-02-23T11:57:32;96277.09;;;7.89;64.04
59106;BME280;44891;50.204;8.132;2024-02-23T12:01:34;96284.25;;;8.17;66.04
59106;BME280;44891;50.204;8.132;2024-02-23T12:05:36;96280.34;;;7.55;66.70
59106;BME280;44891;50.204;8.132;2024-02-23T12:09:39;96281.66;;;9.78;60.37
59106;BME280;44891;50.204;8.132;2024-02-23T12:13:42;96268.34;;;7.54;65.87
59106;BME280;44891;50.204;8.132;2024-02-23T12:17:48;96262.59;;;7.52;67.84
59106;BME280;44891;50.204;8.132;2024-02-23T12:21:51;96270.97;;;7.44;67.77
59106;BME280;44891;50.204;8.132;2024-02-23T12:25:54;96275.53;;;7.83;66.79
59106;BME280;44891;50.204;8.132;2024-02-23T12:29:57;96272.81;;;7.44;68.94
59106;BME280;44891;50.204;8.132;2024-02-23T12:34:00;96285.06;;;7.43;71.70
59106;BME280;44891;50.204;8.132;2024-02-23T12:38:01;96279.63;;;7.24;74.22
59106;BME280;44891;50.204;8.132;2024-02-23T12:42:05;96288.25;;;7.30;78.44
59106;BME280;44891;50.204;8.132;2024-02-23T12:46:07;96269.22;;;17.47;48.75
59106;BME280;44891;50.204;8.132;2024-02-23T12:50:09;96274.84;;;8.66;66.87
59106;BME280;44891;50.204;8.132;2024-02-23T12:54:11;96275.63;;;7.68;70.79
59106;BME280;44891;50.204;8.132;2024-02-23T12:58:15;96279.88;;;8.08;69.05
59106;BME280;44891;50.204;8.132;2024-02-23T13:02:16;96287.25;;;10.14;61.32
59106;BME280;44891;50.204;8.132;2024-02-23T13:06:18;96280.25;;;10.66;59.04
59106;BME280;44891;50.204;8.132;2024-02-23T13:10:20;96272.75;;;14.04;48.15
59106;BME280;44891;50.204;8.132;2024-02-23T13:14:23;96273.38;;;13.21;50.74
59106;BME280;44891;50.204;8.132;2024-02-23T13:18:25;96265.44;;;12.68;51.05
59106;BME280;44891;50.204;8.132;2024-02-23T13:22:27;96269.78;;;11.86;54.09
59106;BME280;44891;50.204;8.132;2024-02-23T13:26:29;96268.50;;;9.06;60.87
59106;BME280;44891;50.204;8.132;2024-02-23T13:30:32;96256.59;;;8.90;62.36
59106;BME280;44891;50.204;8.132;2024-02-23T13:34:35;96247.34;;;8.68;59.74
59106;BME280;44891;50.204;8.132;2024-02-23T13:38:37;96265.31;;;8.80;61.12
59106;BME280;44891;50.204;8.132;2024-02-23T13:42:40;96251.72;;;10.78;57.30
59106;BME280;44891;50.204;8.132;2024-02-23T13:46:43;96241.06;;;8.69;59.77
59106;BME280;44891;50.204;8.132;2024-02-23T13:50:45;96243.75;;;8.93;60.71
59106;BME280;44891;50.204;8.132;2024-02-23T13:54:47;96238.59;;;8.83;61.11
59106;BME280;44891;50.204;8.132;2024-02-23T13:58:49;96244.28;;;8.61;61.54
59106;BME280;44891;50.204;8.132;2024-02-23T14:02:52;96235.94;;;8.15;62.80
59106;BME280;44891;50.204;8.132;2024-02-23T14:06:54;96247.44;;;12.47;57.08
59106;BME280;44891;50.204;8.132;2024-02-23T14:10:56;96235.09;;;9.22;58.70
59106;BME280;44891;50.204;8.132;2024-02-23T14:14:58;96243.94;;;8.39;62.17
59106;BME280;44891;50.204;8.132;2024-02-23T14:19:01;96246.44;;;8.05;62.76
59106;BME280;44891;50.204;8.132;2024-02-23T14:23:03;96239.34;;;13.82;51.14
59106;BME280;44891;50.204;8.132;2024-02-23T14:27:05;96229.59;;;22.48;36.57
59106;BME280;44891;50.204;8.132;2024-02-23T14:31:07;96233.69;;;12.28;49.91
59106;BME280;44891;50.204;8.132;2024-02-23T14:35:10;96223.44;;;9.57;56.86
59106;BME280;44891;50.204;8.132;2024-02-23T14:39:12;96228.06;;;8.93;59.39
59106;BME280;44891;50.204;8.132;2024-02-23T14:43:14;96225.38;;;11.43;54.63
59106;BME280;44891;50.204;8.132;2024-02-23T14:47:16;96221.06;;;9.37;57.54
59106;BME280;44891;50.204;8.132;2024-02-23T14:51:19;96228.50;;;10.53;55.27
59106;BME280;44891;50.204;8.132;2024-02-23T14:55:21;96213.69;;;10.05;56.07
59106;BME280;44891;50.204;8.132;2024-02-23T14:59:22;96216.91;;;8.78;59.06
59106;BME280;44891;50.204;8.132;2024-02-23T15:03:24;96203.03;;;8.48;60.79
59106;BME280;44891;50.204;8.132;2024-02-23T15:07:28;96204.66;;;8.00;61.11
59106;BME280;44891;50.204;8.132;2024-02-23T15:11:30;96219.69;;;8.18;60.75
59106;BME280;44891;50.204;8.132;2024-02-23T15:15:32;96206.31;;;8.25;60.94
59106;BME280;44891;50.204;8.132;2024-02-23T15:19:36;96203.09;;;8.38;61.13
59106;BME280;44891;50.204;8.132;2024-02-23T15:23:39;96198.72;;;7.79;61.74
59106;BME280;44891;50.204;8.132;2024-02-23T15:27:43;96210.06;;;7.59;62.42
59106;BME280;44891;50.204;8.132;2024-02-23T15:31:45;96206.50;;;7.34;62.95
59106;BME280;44891;50.204;8.132;2024-02-23T15:35:47;96213.41;;;7.70;62.49
59106;BME280;44891;50.204;8.132;2024-02-23T15:39:50;96206.94;;;7.62;62.16
59106;BME280;44891;50.204;8.132;2024-02-23T15:43:52;96209.25;;;7.74;62.08
59106;BME280;44891;50.204;8.132;2024-02-23T15:47:54;96203.53;;;7.67;62.80
59106;BME280;44891;50.204;8.132;2024-02-23T15:51:56;96222.25;;;7.79;63.08
59106;BME280;44891;50.204;8.132;2024-02-23T15:55:59;96214.16;;;7.80;62.58
59106;BME280;44891;50.204;8.132;2024-02-23T16:00:01;96216.63;;;7.56;63.31
59106;BME280;44891;50.204;8.132;2024-02-23T16:04:05;96221.56;;;7.58;62.68
59106;BME280;44891;50.204;8.132;2024-02-23T16:08:11;96209.81;;;7.60;63.22
59106;BME280;44891;50.204;8.132;2024-02-23T16:12:14;96209.28;;;7.58;62.71
59106;BME280;44891;50.204;8.132;2024-02-23T16:16:16;96221.41;;;7.29;63.02
59106;BME280;44891;50.204;8.132;2024-02-23T16:20:18;96210.47;;;7.27;63.03
59106;BME280;44891;50.204;8.132;2024-02-23T16:24:20;96208.38;;;7.24;64.04
59106;BME280;44891;50.204;8.132;2024-02-23T16:28:23;96207.34;;;7.20;64.41
59106;BME280;44891;50.204;8.132;2024-02-23T16:32:25;96210.19;;;7.18;64.06
59106;BME280;44891;50.204;8.132;2024-02-23T16:36:26;96207.91;;;7.06;63.96
59106;BME280;44891;50.204;8.132;2024-02-23T16:40:28;96217.53;;;7.06;65.11
59106;BME280;44891;50.204;8.132;2024-02-23T16:44:31;96208.41;;;7.08;64.57
59106;BME280;44891;50.204;8.132;2024-02-23T16:48:33;96227.69;;;7.13;64.90
59106;BME280;44891;50.204;8.132;2024-02-23T16:52:35;96235.06;;;7.00;65.84
59106;BME280;44891;50.204;8.132;2024-02-23T16:56:38;96242.34;;;6.98;67.43
59106;BME280;44891;50.204;8.132;2024-02-23T17:00:41;96268.16;;;6.39;74.73
59106;BME280;44891;50.204;8.132;2024-02-23T17:04:43;96272.91;;;5.74;81.87
59106;BME280;44891;50.204;8.132;2024-02-23T17:08:44;96273.91;;;5.63;84.27
59106;BME280;44891;50.204;8.132;2024-02-23T17:12:48;96267.66;;;5.64;85.50
59106;BME280;44891;50.204;8.132;2024-02-23T17:16:51;96271.56;;;5.61;88.56
59106;BME280;44891;50.204;8.132;2024-02-23T17:20:53;96262.72;;;5.67;87.96
59106;BME280;44891;50.204;8.132;2024-02-23T17:24:56;96270.09;;;5.33;89.27
59106;BME280;44891;50.204;8.132;2024-02-23T17:28:57;96270.66;;;5.40;89.45
59106;BME280;44891;50.204;8.132;2024-02-23T17:33:01;96278.47;;;5.40;90.50
59106;BME280;44891;50.204;8.132;2024-02-23T17:37:03;96275.88;;;5.40;92.29
59106;BME280;44891;50.204;8.132;2024-02-23T17:41:07;96265.94;;;5.32;93.36
59106;BME280;44891;50.204;8.132;2024-02-23T17:45:09;96279.16;;;5.26;94.11
59106;BME280;44891;50.204;8.132;2024-02-23T17:49:12;96287.22;;;5.24;95.27
59106;BME280;44891;50.204;8.132;2024-02-23T17:53:14;96278.97;;;5.37;93.91
59106;BME280;44891;50.204;8.132;2024-02-23T17:57:16;96282.59;;;5.31;93.77
59106;BME280;44891;50.204;8.132;2024-02-23T18:01:19;96271.81;;;5.12;94.73
59106;BME280;44891;50.204;8.132;2024-02-23T18:05:23;96269.59;;;4.94;95.30
59106;BME280;44891;50.204;8.132;2024-02-23T18:09:25;96277.91;;;4.91;95.33
59106;BME280;44891;50.204;8.132;2024-02-23T18:13:27;96266.06;;;4.73;96.21
59106;BME280;44891;50.204;8.132;2024-02-23T18:17:28;96273.97;;;4.88;95.20
59106;BME280;44891;50.204;8.132;2024-02-23T18:21:32;96281.53;;;4.90;95.52
59106;BME280;44891;50.204;8.132;2024-02-23T18:25:34;96291.38;;;4.83;95.93
59106;BME280;44891;50.204;8.132;2024-02-23T18:29:36;96283.88;;;4.91;94.29
59106;BME280;44891;50.204;8.132;2024-02-23T18:33:38;96282.69;;;4.72;95.64
59106;BME280;44891;50.204;8.132;2024-02-23T18:37:41;96292.31;;;4.72;96.42
59106;BME280;44891;50.204;8.132;2024-02-23T18:41:43;96299.09;;;4.73;96.19
59106;BME280;44891;50.204;8.132;2024-02-23T18:45:44;96300.72;;;4.52;96.37
59106;BME280;44891;50.204;8.132;2024-02-23T18:49:46;96300.78;;;4.57;96.18
59106;BME280;44891;50.204;8.132;2024-02-23T18:53:49;96299.31;;;4.39;96.98
59106;BME280;44891;50.204;8.132;2024-02-23T18:57:51;96299.88;;;4.46;97.06
59106;BME280;44891;50.204;8.132;2024-02-23T19:01:54;96303.59;;;4.28;97.87
59106;BME280;44891;50.204;8.132;2024-02-23T19:05:55;96309.97;;;4.16;98.37
59106;BME280;44891;50.204;8.132;2024-02-23T19:09:59;96299.50;;;4.32;97.74
59106;BME280;44891;50.204;8.132;2024-02-23T19:14:00;96298.00;;;4.42;97.39
59106;BME280;44891;50.204;8.132;2024-02-23T19:18:02;96291.94;;;4.31;98.18
59106;BME280;44891;50.204;8.132;2024-02-23T19:22:04;96297.59;;;4.23;99.24
59106;BME280;44891;50.204;8.132;2024-02-23T19:26:07;96293.19;;;4.23;99.25
59106;BME280;44891;50.204;8.132;2024-02-23T19:30:10;96290.06;;;4.26;99.26
59106;BME280;44891;50.204;8.132;2024-02-23T19:34:15;96285.38;;;4.23;99.09
59106;BME280;44891;50.204;8.132;2024-02-23T19:38:17;96290.47;;;4.13;98.98
59106;BME280;44891;50.204;8.132;2024-02-23T19:42:20;96295.38;;;4.09;99.09
59106;BME280;44891;50.204;8.132;2024-02-23T19:46:22;96293.41;;;4.22;98.78
59106;BME280;44891;50.204;8.132;2024-02-23T19:50:24;96296.66;;;4.34;96.84
59106;BME280;44891;50.204;8.132;2024-02-23T19:54:26;96305.09;;;4.46;97.11
59106;BME280;44891;50.204;8.132;2024-02-23T19:58:29;96304.69;;;4.32;99.06
59106;BME280;44891;50.204;8.132;2024-02-23T20:02:31;96304.25;;;4.41;99.80
59106;BME280;44891;50.204;8.132;2024-02-23T20:06:33;96309.00;;;4.49;97.85
59106;BME280;44891;50.204;8.132;2024-02-23T20:10:35;96317.41;;;4.56;97.92
59106;BME280;44891;50.204;8.132;2024-02-23T20:14:40;96301.25;;;4.54;97.03
59106;BME280;44891;50.204;8.132;2024-02-23T20:18:42;96310.25;;;4.73;93.10
59106;BME280;44891;50.204;8.132;2024-02-23T20:22:44;96294.69;;;4.46;96.17
59106;BME280;44891;50.204;8.132;2024-02-23T20:26:46;96289.22;;;4.43;96.50
59106;BME280;44891;50.204;8.132;2024-02-23T20:30:50;96283.13;;;4.32;97.66
59106;BME280;44891;50.204;8.132;2024-02-23T20:34:52;96280.06;;;4.40;97.69
59106;BME280;44891;50.204;8.132;2024-02-23T20:38:54;96280.59;;;4.37;98.43
59106;BME280;44891;50.204;8.132;2024-02-23T20:42:56;96282.09;;;4.33;99.32
59106;BME280;44891;50.204;8.132;2024-02-23T20:47:00;96283.59;;;4.29;99.36
59106;BME280;44891;50.204;8.132;2024-02-23T20:51:01;96276.81;;;4.23;99.97
59106;BME280;44891;50.204;8.132;2024-02-23T20:55:06;96285.84;;;4.20;100.00
59106;BME280;44891;50.204;8.132;2024-02-23T20:59:08;96289.41;;;4.36;99.74
59106;BME280;44891;50.204;8.132;2024-02-23T21:03:11;96293.84;;;4.41;99.73
59106;BME280;44891;50.204;8.132;2024-02-23T21:07:13;96331.56;;;4.70;96.16
59106;BME280;44891;50.204;8.132;2024-02-23T21:11:16;96322.59;;;4.88;94.99
59106;BME280;44891;50.204;8.132;2024-02-23T21:15:18;96321.50;;;4.79;96.68
59106;BME280;44891;50.204;8.132;2024-02-23T21:19:22;96320.50;;;4.85;96.84
59106;BME280;44891;50.204;8.132;2024-02-23T21:23:24;96298.88;;;4.79;96.60
59106;BME280;44891;50.204;8.132;2024-02-23T21:27:25;96294.13;;;4.71;97.84
59106;BME280;44891;50.204;8.132;2024-02-23T21:31:30;96286.28;;;4.66;97.96
59106;BME280;44891;50.204;8.132;2024-02-23T21:35:33;96292.09;;;4.46;97.84
59106;BME280;44891;50.204;8.132;2024-02-23T21:39:36;96288.59;;;4.35;97.87